sensor_id;sensor_type;location;lat;lon;timestamp;pressure;altitude;pressure_sealevel;temperature;humidity
58775;BME280;44545;47.480;19.024;2023-04-03T03:12:47;100099.25;;;5.52;71.25
58775;BME280;44545;47.480;19.024;2023-04-03T03:15:49;100099.25;;;5.52;71.25
58775;BME280;44545;47.480;19.024;2023-04-03T03:18:52;100108.31;;;4.96;72.62
58775;BME280;44545;47.480;19.024;2023-04-03T03:21:54;100111.53;;;5.06;72.54
58775;BME280;44545;47.480;19.024;2023-04-03T03:24:57;100114.56;;;5.12;72.52
58775;BME280;44545;47.480;19.024;2023-04-03T03:27:59;100117.69;;;5.08;71.88
58775;BME280;44545;47.480;19.024;2023-04-03T03:31:02;100105.22;;;5.14;72.08
58775;BME280;44545;47.480;19.024;2023-04-03T03:34:05;100106.34;;;5.06;72.45
58775;BME280;44545;47.480;19.024;2023-04-03T03:37:07;100114.09;;;5.06;74.09
58775;BME280;44545;47.480;19.024;2023-04-03T03:40:10;100113.56;;;5.10;72.38
58775;BME280;44545;47.480;19.024;2023-04-03T03:43:14;100115.91;;;5.07;72.62
58775;BME280;44545;47.480;19.024;2023-04-03T03:46:17;100105.72;;;4.96;73.17
58775;BME280;44545;47.480;19.024;2023-04-03T03:49:19;100108.84;;;4.92;73.07
58775;BME280;44545;47.480;19.024;2023-04-03T03:52:22;100110.53;;;4.92;73.53
58775;BME280;44545;47.480;19.024;2023-04-03T03:55:24;100112.59;;;4.84;73.36
58775;BME280;44545;47.480;19.024;2023-04-03T03:58:27;100112.13;;;4.78;73.62
58775;BME280;44545;47.480;19.024;2023-04-03T04:01:33;100105.72;;;4.73;73.63
58775;BME280;44545;47.480;19.024;2023-04-03T04:04:37;100107.75;;;4.77;75.21
58775;BME280;44545;47.480;19.024;2023-04-03T04:07:39;100098.66;;;4.82;73.74
58775;BME280;44545;47.480;19.024;2023-04-03T04:10:41;100096.88;;;4.81;74.58
58775;BME280;44545;47.480;19.024;2023-04-03T04:13:44;100100.00;;;4.65;73.86
58775;BME280;44545;47.480;19.024;2023-04-03T04:16:47;100104.50;;;4.68;74.39
58775;BME280;44545;47.480;19.024;2023-04-03T04:19:49;100113.81;;;4.66;73.87
58775;BME280;44545;47.480;19.024;2023-04-03T04:22:52;100106.84;;;4.65;74.29
58775;BME280;44545;47.480;19.024;2023-04-03T04:25:54;100112.16;;;4.66;74.51
58775;BME280;44545;47.480;19.024;2023-04-03T04:28:57;100125.06;;;4.66;74.55
58775;BME280;44545;47.480;19.024;2023-04-03T04:32:00;100122.13;;;4.50;74.92
58775;BME280;44545;47.480;19.024;2023-04-03T04:35:03;100125.47;;;4.61;73.67
58775;BME280;44545;47.480;19.024;2023-04-03T04:38:06;100117.63;;;4.47;74.90
58775;BME280;44545;47.480;19.024;2023-04-03T04:41:11;100119.88;;;4.54;74.20
58775;BME280;44545;47.480;19.024;2023-04-03T04:44:13;100122.69;;;4.57;74.16
58775;BME280;44545;47.480;19.024;2023-04-03T04:47:16;100123.16;;;4.64;74.64
58775;BME280;44545;47.480;19.024;2023-04-03T04:50:18;100124.50;;;4.59;73.97
58775;BME280;44545;47.480;19.024;2023-04-03T04:53:22;100130.00;;;4.51;74.92
58775;BME280;44545;47.480;19.024;2023-04-03T04:56:24;100122.13;;;4.50;74.73
58775;BME280;44545;47.480;19.024;2023-04-03T04:59:28;100128.44;;;4.53;75.59
58775;BME280;44545;47.480;19.024;2023-04-03T05:02:31;100128.63;;;4.45;74.96
58775;BME280;44545;47.480;19.024;2023-04-03T05:05:33;100135.81;;;4.61;75.66
58775;BME280;44545;47.480;19.024;2023-04-03T05:08:36;100134.25;;;4.63;74.24
58775;BME280;44545;47.480;19.024;2023-04-03T05:11:39;100132.13;;;4.69;75.85
58775;BME280;44545;47.480;19.024;2023-04-03T05:14:44;100133.03;;;4.69;75.19
58775;BME280;44545;47.480;19.024;2023-04-03T05:17:47;100132.22;;;4.82;74.76
58775;BME280;44545;47.480;19.024;2023-04-03T05:20:50;100144.03;;;4.78;73.57
58775;BME280;44545;47.480;19.024;2023-04-03T05:23:56;100144.25;;;4.70;74.13
58775;BME280;44545;47.480;19.024;2023-04-03T05:26:59;100144.59;;;4.74;73.84
58775;BME280;44545;47.480;19.024;2023-04-03T05:30:02;100139.75;;;4.79;74.02
58775;BME280;44545;47.480;19.024;2023-04-03T05:33:06;100141.66;;;4.93;75.10
58775;BME280;44545;47.480;19.024;2023-04-03T05:36:10;100137.97;;;5.02;73.38
58775;BME280;44545;47.480;19.024;2023-04-03T05:39:13;100135.44;;;5.52;70.54
58775;BME280;44545;47.480;19.024;2023-04-03T05:42:16;100115.47;;;6.91;65.44
58775;BME280;44545;47.480;19.024;2023-04-03T05:45:19;100119.16;;;8.35;59.47
58775;BME280;44545;47.480;19.024;2023-04-03T05:48:23;100121.66;;;9.24;56.48
58775;BME280;44545;47.480;19.024;2023-04-03T05:51:30;100127.47;;;8.15;58.65
58775;BME280;44545;47.480;19.024;2023-04-03T05:54:33;100123.97;;;7.43;61.99
58775;BME280;44545;47.480;19.024;2023-04-03T05:57:35;100133.62;;;7.04;63.06
58775;BME280;44545;47.480;19.024;2023-04-03T06:00:38;100135.22;;;6.49;64.44
58775;BME280;44545;47.480;19.024;2023-04-03T06:03:41;100141.87;;;6.45;64.94
58775;BME280;44545;47.480;19.024;2023-04-03T06:06:55;100144.69;;;6.62;65.97
58775;BME280;44545;47.480;19.024;2023-04-03T06:10:00;100140.69;;;7.62;62.17
58775;BME280;44545;47.480;19.024;2023-04-03T06:13:03;100147.06;;;8.10;61.81
58775;BME280;44545;47.480;19.024;2023-04-03T06:16:12;100150.03;;;9.36;57.30
58775;BME280;44545;47.480;19.024;2023-04-03T06:19:17;100138.97;;;11.26;51.19
58775;BME280;44545;47.480;19.024;2023-04-03T06:22:19;100144.50;;;12.69;46.28
58775;BME280;44545;47.480;19.024;2023-04-03T06:25:23;100142.19;;;14.36;41.72
58775;BME280;44545;47.480;19.024;2023-04-03T06:28:26;100138.75;;;14.62;40.29
58775;BME280;44545;47.480;19.024;2023-04-03T06:31:29;100150.25;;;11.25;45.27
58775;BME280;44545;47.480;19.024;2023-04-03T06:34:32;100159.94;;;10.40;49.02
58775;BME280;44545;47.480;19.024;2023-04-03T06:37:39;100151.12;;;10.38;49.77
58775;BME280;44545;47.480;19.024;2023-04-03T06:40:41;100162.78;;;10.12;50.39
58775;BME280;44545;47.480;19.024;2023-04-03T06:43:44;100165.28;;;9.14;51.63
58775;BME280;44545;47.480;19.024;2023-04-03T06:46:47;100167.66;;;8.94;54.11
58775;BME280;44545;47.480;19.024;2023-04-03T06:49:49;100170.56;;;9.15;52.07
58775;BME280;44545;47.480;19.024;2023-04-03T06:52:52;100179.94;;;9.59;53.21
58775;BME280;44545;47.480;19.024;2023-04-03T06:55:54;100181.03;;;9.63;51.57
58775;BME280;44545;47.480;19.024;2023-04-03T06:58:57;100175.09;;;9.65;51.65
58775;BME280;44545;47.480;19.024;2023-04-03T07:02:02;100189.09;;;9.67;51.52
58775;BME280;44545;47.480;19.024;2023-04-03T07:05:06;100186.44;;;9.51;52.86
58775;BME280;44545;47.480;19.024;2023-04-03T07:08:08;100191.12;;;9.89;51.98
58775;BME280;44545;47.480;19.024;2023-04-03T07:11:11;100193.16;;;9.79;52.12
58775;BME280;44545;47.480;19.024;2023-04-03T07:14:13;100197.47;;;9.94;51.82
58775;BME280;44545;47.480;19.024;2023-04-03T07:17:16;100198.78;;;9.86;51.23
58775;BME280;44545;47.480;19.024;2023-04-03T07:20:18;100198.78;;;9.70;51.83
58775;BME280;44545;47.480;19.024;2023-04-03T07:23:20;100208.72;;;9.93;52.28
58775;BME280;44545;47.480;19.024;2023-04-03T07:26:23;100201.31;;;10.01;51.40
58775;BME280;44545;47.480;19.024;2023-04-03T07:29:25;100197.50;;;10.44;49.34
58775;BME280;44545;47.480;19.024;2023-04-03T07:32:28;100207.19;;;10.13;50.21
58775;BME280;44545;47.480;19.024;2023-04-03T07:35:31;100210.75;;;9.99;50.53
58775;BME280;44545;47.480;19.024;2023-04-03T07:38:34;100202.53;;;10.40;49.01
58775;BME280;44545;47.480;19.024;2023-04-03T07:41:37;100207.09;;;10.61;49.59
58775;BME280;44545;47.480;19.024;2023-04-03T07:44:40;100210.13;;;10.36;47.68
58775;BME280;44545;47.480;19.024;2023-04-03T07:47:43;100200.22;;;10.63;47.67
58775;BME280;44545;47.480;19.024;2023-04-03T07:50:45;100212.22;;;10.43;49.85
58775;BME280;44545;47.480;19.024;2023-04-03T07:53:48;100212.16;;;10.76;47.03
58775;BME280;44545;47.480;19.024;2023-04-03T07:56:50;100210.00;;;10.67;49.42
58775;BME280;44545;47.480;19.024;2023-04-03T07:59:53;100221.25;;;10.01;48.97
58775;BME280;44545;47.480;19.024;2023-04-03T08:02:55;100228.97;;;9.83;50.37
58775;BME280;44545;47.480;19.024;2023-04-03T08:06:03;100236.94;;;10.02;48.48
58775;BME280;44545;47.480;19.024;2023-04-03T08:09:08;100230.66;;;9.82;50.00
58775;BME280;44545;47.480;19.024;2023-04-03T08:12:11;100227.53;;;10.20;49.51
58775;BME280;44545;47.480;19.024;2023-04-03T08:15:14;100226.19;;;10.44;50.40
58775;BME280;44545;47.480;19.024;2023-04-03T08:18:16;100226.31;;;10.30;47.55
58775;BME280;44545;47.480;19.024;2023-04-03T08:21:20;100235.50;;;9.91;49.31
58775;BME280;44545;47.480;19.024;2023-04-03T08:24:23;100231.00;;;10.05;49.61
58775;BME280;44545;47.480;19.024;2023-04-03T08:27:26;100236.25;;;10.54;48.47
58775;BME280;44545;47.480;19.024;2023-04-03T08:30:29;100244.09;;;10.37;47.83
58775;BME280;44545;47.480;19.024;2023-04-03T08:33:32;100236.72;;;10.63;46.07
58775;BME280;44545;47.480;19.024;2023-04-03T08:36:35;100240.25;;;10.63;44.96
58775;BME280;44545;47.480;19.024;2023-04-03T08:39:37;100231.78;;;10.51;45.82
58775;BME280;44545;47.480;19.024;2023-04-03T08:46:11;100227.88;;;11.47;44.14
58775;BME280;44545;47.480;19.024;2023-04-03T08:49:43;100234.28;;;11.36;43.72
58775;BME280;44545;47.480;19.024;2023-04-03T08:52:52;100225.12;;;11.44;43.91
58775;BME280;44545;47.480;19.024;2023-04-03T08:55:56;100235.16;;;11.73;42.42
58775;BME280;44545;47.480;19.024;2023-04-03T08:59:06;100229.00;;;12.08;43.11
58775;BME280;44545;47.480;19.024;2023-04-03T09:02:23;100224.72;;;12.10;41.91
58775;BME280;44545;47.480;19.024;2023-04-03T09:12:22;100222.34;;;15.55;35.43
58775;BME280;44545;47.480;19.024;2023-04-03T09:15:27;100224.13;;;15.84;33.80
58775;BME280;44545;47.480;19.024;2023-04-03T09:18:45;100224.66;;;16.94;33.33
58775;BME280;44545;47.480;19.024;2023-04-03T09:21:51;100223.56;;;17.59;30.99
58775;BME280;44545;47.480;19.024;2023-04-03T09:25:21;100226.38;;;18.04;29.55
58775;BME280;44545;47.480;19.024;2023-04-03T09:28:24;100217.50;;;19.98;28.36
58775;BME280;44545;47.480;19.024;2023-04-03T09:31:32;100208.06;;;24.29;21.70
58775;BME280;44545;47.480;19.024;2023-04-03T09:34:41;100217.09;;;25.45;19.60
58775;BME280;44545;47.480;19.024;2023-04-03T09:37:51;100213.69;;;28.35;16.82
58775;BME280;44545;47.480;19.024;2023-04-03T09:41:15;100207.59;;;28.26;15.79
58775;BME280;44545;47.480;19.024;2023-04-03T09:44:24;100205.44;;;29.90;14.89
58775;BME280;44545;47.480;19.024;2023-04-03T09:47:32;100209.63;;;25.80;18.08
58775;BME280;44545;47.480;19.024;2023-04-03T09:50:36;100210.66;;;24.48;20.50
58775;BME280;44545;47.480;19.024;2023-04-03T09:53:43;100210.25;;;25.09;18.95
58775;BME280;44545;47.480;19.024;2023-04-03T09:56:50;100213.16;;;21.86;22.14
58775;BME280;44545;47.480;19.024;2023-04-03T09:59:57;100213.87;;;21.61;22.07
58775;BME280;44545;47.480;19.024;2023-04-03T10:03:03;100200.97;;;22.27;22.30
58775;BME280;44545;47.480;19.024;2023-04-03T10:06:22;100208.34;;;19.75;24.02
58775;BME280;44545;47.480;19.024;2023-04-03T10:09:28;100224.38;;;18.33;27.44
58775;BME280;44545;47.480;19.024;2023-04-03T10:12:31;100223.44;;;16.81;30.38
58775;BME280;44545;47.480;19.024;2023-04-03T10:16:03;100222.97;;;16.04;29.78
58775;BME280;44545;47.480;19.024;2023-04-03T10:19:33;100226.87;;;14.56;33.42
58775;BME280;44545;47.480;19.024;2023-04-03T10:45:37;100227.53;;;11.40;38.99
58775;BME280;44545;47.480;19.024;2023-04-03T10:52:47;100226.59;;;11.75;39.41
58775;BME280;44545;47.480;19.024;2023-04-03T10:59:39;100225.28;;;11.85;40.39
58775;BME280;44545;47.480;19.024;2023-04-03T11:02:51;100225.31;;;11.49;38.71
58775;BME280;44545;47.480;19.024;2023-04-03T11:05:56;100225.62;;;11.73;39.60
58775;BME280;44545;47.480;19.024;2023-04-03T11:09:05;100221.78;;;12.22;39.04
58775;BME280;44545;47.480;19.024;2023-04-03T11:12:17;100222.31;;;11.95;38.44
58775;BME280;44545;47.480;19.024;2023-04-03T11:15:22;100219.03;;;11.81;39.94
58775;BME280;44545;47.480;19.024;2023-04-03T11:18:37;100219.34;;;11.52;38.60
58775;BME280;44545;47.480;19.024;2023-04-03T11:21:50;100223.97;;;11.75;38.93
58775;BME280;44545;47.480;19.024;2023-04-03T11:25:18;100216.03;;;11.91;39.17
58775;BME280;44545;47.480;19.024;2023-04-03T11:28:23;100218.56;;;11.90;38.84
58775;BME280;44545;47.480;19.024;2023-04-03T11:31:35;100201.66;;;11.64;37.72
58775;BME280;44545;47.480;19.024;2023-04-03T11:34:42;100208.88;;;11.69;37.63
58775;BME280;44545;47.480;19.024;2023-04-03T11:37:53;100199.00;;;11.82;37.85
58775;BME280;44545;47.480;19.024;2023-04-03T11:40:57;100190.69;;;11.71;38.92
58775;BME280;44545;47.480;19.024;2023-04-03T11:44:03;100190.56;;;12.05;37.36
58775;BME280;44545;47.480;19.024;2023-04-03T11:47:08;100192.19;;;12.23;37.51
58775;BME280;44545;47.480;19.024;2023-04-03T11:50:45;100192.59;;;12.32;36.41
58775;BME280;44545;47.480;19.024;2023-04-03T11:53:48;100190.66;;;12.28;36.85
58775;BME280;44545;47.480;19.024;2023-04-03T11:56:51;100180.75;;;12.40;37.13
58775;BME280;44545;47.480;19.024;2023-04-03T11:59:53;100194.19;;;12.28;39.22
58775;BME280;44545;47.480;19.024;2023-04-03T12:02:56;100192.53;;;11.91;36.22
58775;BME280;44545;47.480;19.024;2023-04-03T12:12:33;100183.31;;;12.00;36.67
58775;BME280;44545;47.480;19.024;2023-04-03T12:25:40;100181.41;;;11.40;39.19
58775;BME280;44545;47.480;19.024;2023-04-03T12:28:50;100184.47;;;11.49;39.86
58775;BME280;44545;47.480;19.024;2023-04-03T12:35:30;100172.16;;;11.47;39.32
58775;BME280;44545;47.480;19.024;2023-04-03T12:38:58;100176.09;;;11.39;40.07
58775;BME280;44545;47.480;19.024;2023-04-03T12:42:24;100176.19;;;11.40;39.31
58775;BME280;44545;47.480;19.024;2023-04-03T12:45:50;100178.66;;;11.37;40.93
58775;BME280;44545;47.480;19.024;2023-04-03T12:48:57;100169.00;;;11.91;37.20
58775;BME280;44545;47.480;19.024;2023-04-03T12:52:03;100166.28;;;12.08;36.66
58775;BME280;44545;47.480;19.024;2023-04-03T12:55:15;100170.81;;;12.73;35.87
58775;BME280;44545;47.480;19.024;2023-04-03T12:58:28;100160.56;;;12.78;36.19
58775;BME280;44545;47.480;19.024;2023-04-03T13:01:30;100162.53;;;13.05;37.01
58775;BME280;44545;47.480;19.024;2023-04-03T13:04:33;100158.72;;;13.19;34.68
58775;BME280;44545;47.480;19.024;2023-04-03T13:07:37;100152.97;;;12.84;38.12
58775;BME280;44545;47.480;19.024;2023-04-03T13:11:00;100146.28;;;12.49;37.12
58775;BME280;44545;47.480;19.024;2023-04-03T13:14:12;100141.59;;;12.63;37.13
58775;BME280;44545;47.480;19.024;2023-04-03T13:17:16;100148.06;;;12.30;35.40
58775;BME280;44545;47.480;19.024;2023-04-03T13:20:25;100143.47;;;12.25;38.00
58775;BME280;44545;47.480;19.024;2023-04-03T13:23:29;100141.66;;;12.03;37.15
58775;BME280;44545;47.480;19.024;2023-04-03T13:26:33;100136.19;;;12.18;36.83
58775;BME280;44545;47.480;19.024;2023-04-03T13:29:38;100135.50;;;12.22;36.76
58775;BME280;44545;47.480;19.024;2023-04-03T13:32:43;100126.31;;;12.51;35.51
58775;BME280;44545;47.480;19.024;2023-04-03T13:35:46;100131.25;;;12.45;35.86
58775;BME280;44545;47.480;19.024;2023-04-03T13:42:29;100126.88;;;13.29;34.68
58775;BME280;44545;47.480;19.024;2023-04-03T13:45:33;100127.31;;;12.75;37.72
58775;BME280;44545;47.480;19.024;2023-04-03T13:48:40;100133.59;;;12.79;34.80
58775;BME280;44545;47.480;19.024;2023-04-03T13:51:43;100130.25;;;13.27;35.13
58775;BME280;44545;47.480;19.024;2023-04-03T13:54:57;100124.94;;;13.02;35.14
58775;BME280;44545;47.480;19.024;2023-04-03T14:01:21;100114.53;;;12.83;35.06
58775;BME280;44545;47.480;19.024;2023-04-03T14:04:29;100113.16;;;12.70;36.46
58775;BME280;44545;47.480;19.024;2023-04-03T14:07:33;100103.25;;;12.63;35.48
58775;BME280;44545;47.480;19.024;2023-04-03T14:10:36;100100.72;;;12.65;37.26
58775;BME280;44545;47.480;19.024;2023-04-03T14:13:39;100099.75;;;12.42;37.08
58775;BME280;44545;47.480;19.024;2023-04-03T14:16:46;100109.06;;;12.77;37.09
58775;BME280;44545;47.480;19.024;2023-04-03T14:19:50;100108.72;;;12.90;36.89
58775;BME280;44545;47.480;19.024;2023-04-03T14:22:54;100106.06;;;12.68;35.33
58775;BME280;44545;47.480;19.024;2023-04-03T14:25:56;100103.81;;;12.14;36.12
58775;BME280;44545;47.480;19.024;2023-04-03T14:29:01;100100.72;;;12.03;39.98
58775;BME280;44545;47.480;19.024;2023-04-03T14:32:05;100106.66;;;12.20;36.42
58775;BME280;44545;47.480;19.024;2023-04-03T14:35:17;100096.53;;;12.28;37.81
58775;BME280;44545;47.480;19.024;2023-04-03T14:38:24;100105.63;;;12.36;36.29
58775;BME280;44545;47.480;19.024;2023-04-03T14:41:27;100096.41;;;12.25;37.43
58775;BME280;44545;47.480;19.024;2023-04-03T14:44:30;100107.94;;;11.89;36.93
58775;BME280;44545;47.480;19.024;2023-04-03T14:47:33;100105.03;;;11.64;38.08
58775;BME280;44545;47.480;19.024;2023-04-03T14:50:38;100111.66;;;11.38;39.27
58775;BME280;44545;47.480;19.024;2023-04-03T14:53:42;100110.06;;;11.22;39.24
58775;BME280;44545;47.480;19.024;2023-04-03T14:56:47;100111.84;;;11.23;37.57
58775;BME280;44545;47.480;19.024;2023-04-03T14:59:49;100111.19;;;11.46;37.36
58775;BME280;44545;47.480;19.024;2023-04-03T15:02:52;100117.34;;;11.29;37.56
58775;BME280;44545;47.480;19.024;2023-04-03T15:05:54;100108.56;;;11.27;39.57
58775;BME280;44545;47.480;19.024;2023-04-03T15:12:35;100106.94;;;10.93;40.10
